createdAt,value
2022-10-05T00:02:14.936Z,83.11
2022-10-05T00:12:19.731Z,81.65
2022-10-05T00:22:24.632Z,82.67
2022-10-05T00:32:27.118Z,83.53
2022-10-05T00:42:49.413Z,82.16
2022-10-05T00:53:05.220Z,84.02
2022-10-05T01:03:26.260Z,83.89
2022-10-05T01:13:56.808Z,83.51
2022-10-05T01:24:17.515Z,83.12
2022-10-05T01:34:42.896Z,83.38
2022-10-05T01:45:02.612Z,83.35
2022-10-05T01:55:29.364Z,82.27
2022-10-05T02:05:43.780Z,83.36
2022-10-05T02:15:51.977Z,83.15
2022-10-05T02:25:56.207Z,83.20
2022-10-05T02:36:27.720Z,82.53
2022-10-05T02:46:53.128Z,83.69
2022-10-05T02:57:03.628Z,85.24
2022-10-05T03:07:36.596Z,84.00
2022-10-05T03:17:54.461Z,84.70
2022-10-05T03:28:16.387Z,84.68
2022-10-05T03:38:24.005Z,83.68
2022-10-05T03:48:38.319Z,82.82
2022-10-05T03:58:53.587Z,83.30
2022-10-05T04:09:17.238Z,83.72
2022-10-05T04:19:32.446Z,84.93
2022-10-05T04:29:34.510Z,84.50
2022-10-05T04:40:02.036Z,84.09
2022-10-05T04:50:13.160Z,83.88
2022-10-05T05:00:18.509Z,85.33
2022-10-05T05:10:41.057Z,85.13
2022-10-05T05:21:08.692Z,86.28
2022-10-05T05:31:24.451Z,86.57
2022-10-05T05:41:54.659Z,87.27
2022-10-05T05:52:14.593Z,87.89
2022-10-05T06:02:21.749Z,88.24
2022-10-05T06:12:34.333Z,88.10
2022-10-05T06:22:41.944Z,87.17
2022-10-05T06:32:50.074Z,86.36
2022-10-05T06:43:17.293Z,85.91
2022-10-05T06:53:44.167Z,85.96
2022-10-05T07:03:52.132Z,84.35
2022-10-05T07:14:13.023Z,83.24
2022-10-05T07:24:34.681Z,83.67
2022-10-05T07:35:08.246Z,83.04
2022-10-05T07:45:26.335Z,79.25
2022-10-05T07:55:36.794Z,79.51
2022-10-05T08:05:42.518Z,78.91
2022-10-05T08:15:49.707Z,76.93
2022-10-05T08:26:05.479Z,73.90
2022-10-05T08:36:12.584Z,73.66
2022-10-05T08:46:39.790Z,72.94
2022-10-05T08:57:19.225Z,71.00
2022-10-05T09:07:46.444Z,71.11
2022-10-05T09:18:07.370Z,65.92
2022-10-05T09:28:21.457Z,63.03
2022-10-05T09:39:00.679Z,62.87
2022-10-05T09:49:08.628Z,61.29
2022-10-05T09:59:28.867Z,62.44
2022-10-05T10:10:00.444Z,62.14
2022-10-05T10:20:12.977Z,58.97
2022-10-05T10:30:38.249Z,57.49
2022-10-05T10:41:01.217Z,56.01
2022-10-05T10:51:06.358Z,56.59
2022-10-05T11:01:33.103Z,55.68
2022-10-05T11:11:54.617Z,46.78
2022-10-05T11:22:20.032Z,49.18
2022-10-05T11:32:37.112Z,55.14
2022-10-05T11:42:51.231Z,49.27
2022-10-05T11:53:04.881Z,38.39
2022-10-05T12:03:34.098Z,37.56
2022-10-05T12:13:54.859Z,31.14
2022-10-05T12:24:02.960Z,31.75
2022-10-05T12:34:08.196Z,36.37
2022-10-05T12:44:32.868Z,37.95
2022-10-05T12:54:57.980Z,37.33
2022-10-05T13:05:05.701Z,36.74
2022-10-05T13:15:21.160Z,35.96
2022-10-05T13:25:36.830Z,35.88
2022-10-05T13:35:57.455Z,34.67
2022-10-05T13:46:23.028Z,36.38
2022-10-05T13:56:33.777Z,37.69
2022-10-05T14:06:39.232Z,46.61
2022-10-05T14:16:52.855Z,49.24
2022-10-05T14:26:56.570Z,50.45
2022-10-05T14:37:07.315Z,50.62
2022-10-05T14:47:18.726Z,53.01
2022-10-05T14:57:42.362Z,52.91
2022-10-05T15:07:50.202Z,49.54
2022-10-05T15:18:00.512Z,54.63
2022-10-05T15:28:26.002Z,56.93
2022-10-05T15:38:36.772Z,58.99
2022-10-05T15:48:39.481Z,60.43
2022-10-05T15:58:53.572Z,57.58
2022-10-05T16:09:01.264Z,58.52
2022-10-05T16:19:12.753Z,62.70
2022-10-05T16:29:38.399Z,63.18
2022-10-05T16:39:49.569Z,64.24
2022-10-05T16:50:04.287Z,67.08
2022-10-05T17:00:08.919Z,67.68
2022-10-05T17:10:48.668Z,68.96
2022-10-05T17:21:01.147Z,71.14
2022-10-05T17:31:12.504Z,73.37
2022-10-05T17:41:18.786Z,73.91
2022-10-05T17:51:48.563Z,76.00
2022-10-05T18:02:19.694Z,75.53
2022-10-05T18:12:21.805Z,76.36
2022-10-05T18:22:28.222Z,76.67
2022-10-05T18:32:39.600Z,76.47
2022-10-05T18:42:55.469Z,77.69
2022-10-05T18:53:13.616Z,76.44
2022-10-05T19:03:28.322Z,75.93
2022-10-05T19:13:51.868Z,78.03
2022-10-05T19:24:27.956Z,77.54
2022-10-05T19:34:52.148Z,80.07
2022-10-05T19:45:15.776Z,77.88
2022-10-05T19:55:26.504Z,79.26
2022-10-05T20:05:28.917Z,81.12
2022-10-05T20:15:52.740Z,80.79
2022-10-05T20:26:13.448Z,82.31
2022-10-05T20:40:11.164Z,80.15
2022-10-05T20:50:14.559Z,74.86
2022-10-05T21:00:16.661Z,73.68
2022-10-05T21:10:18.764Z,69.17
2022-10-05T21:20:20.863Z,66.49
2022-10-05T21:30:23.019Z,64.61
2022-10-05T21:40:25.110Z,64.28
2022-10-05T21:50:27.393Z,66.71
2022-10-05T22:00:30.570Z,67.35
2022-10-05T22:10:33.750Z,70.18
2022-10-05T22:20:35.958Z,70.24
2022-10-05T22:30:38.589Z,74.90
2022-10-05T22:40:40.724Z,73.66
2022-10-05T22:50:46.889Z,70.54
2022-10-05T23:00:58.080Z,70.10
2022-10-05T23:11:05.675Z,69.48
2022-10-05T23:21:09.264Z,68.56
2022-10-05T23:31:11.366Z,68.37
2022-10-05T23:41:14.010Z,67.13
2022-10-05T23:51:16.359Z,67.77
